sensor_id;sensor_type;location;lat;lon;timestamp;P1;durP1;ratioP1;P2;durP2;ratioP2
3789;SDS011;1910;49.042;9.028;2022-12-18T00:01:51;59.10;;;26.30;;
3789;SDS011;1910;49.042;9.028;2022-12-18T00:04:21;67.57;;;23.42;;
3789;SDS011;1910;49.042;9.028;2022-12-18T00:06:48;54.38;;;21.75;;
3789;SDS011;1910;49.042;9.028;2022-12-18T00:09:14;75.57;;;24.83;;
3789;SDS011;1910;49.042;9.028;2022-12-18T00:11:40;65.60;;;26.35;;
3789;SDS011;1910;49.042;9.028;2022-12-18T00:14:05;68.23;;;23.53;;
3789;SDS011;1910;49.042;9.028;2022-12-18T00:16:31;82.37;;;27.67;;
3789;SDS011;1910;49.042;9.028;2022-12-18T00:18:58;72.65;;;22.67;;
3789;SDS011;1910;49.042;9.028;2022-12-18T00:21:24;45.95;;;20.08;;
3789;SDS011;1910;49.042;9.028;2022-12-18T00:23:50;46.08;;;21.10;;
3789;SDS011;1910;49.042;9.028;2022-12-18T00:26:17;56.33;;;25.33;;
3789;SDS011;1910;49.042;9.028;2022-12-18T00:29:08;61.03;;;21.95;;
3789;SDS011;1910;49.042;9.028;2022-12-18T00:31:36;49.22;;;23.50;;
3789;SDS011;1910;49.042;9.028;2022-12-18T00:34:03;74.38;;;25.85;;
3789;SDS011;1910;49.042;9.028;2022-12-18T00:36:33;48.47;;;23.05;;
3789;SDS011;1910;49.042;9.028;2022-12-18T00:39:00;51.13;;;21.40;;
3789;SDS011;1910;49.042;9.028;2022-12-18T00:41:27;67.03;;;22.20;;
3789;SDS011;1910;49.042;9.028;2022-12-18T00:44:13;58.08;;;21.05;;
3789;SDS011;1910;49.042;9.028;2022-12-18T00:46:40;54.42;;;20.85;;
3789;SDS011;1910;49.042;9.028;2022-12-18T00:49:07;76.55;;;24.55;;
3789;SDS011;1910;49.042;9.028;2022-12-18T00:51:33;67.53;;;25.07;;
3789;SDS011;1910;49.042;9.028;2022-12-18T00:53:58;61.00;;;21.77;;
3789;SDS011;1910;49.042;9.028;2022-12-18T00:56:24;55.43;;;24.47;;
3789;SDS011;1910;49.042;9.028;2022-12-18T00:58:50;55.23;;;22.73;;
3789;SDS011;1910;49.042;9.028;2022-12-18T01:01:16;61.37;;;25.20;;
3789;SDS011;1910;49.042;9.028;2022-12-18T01:03:41;42.13;;;19.20;;
3789;SDS011;1910;49.042;9.028;2022-12-18T01:06:08;60.30;;;25.67;;
3789;SDS011;1910;49.042;9.028;2022-12-18T01:08:36;38.58;;;16.95;;
3789;SDS011;1910;49.042;9.028;2022-12-18T01:11:10;59.22;;;25.05;;
3789;SDS011;1910;49.042;9.028;2022-12-18T01:13:37;55.10;;;21.85;;
3789;SDS011;1910;49.042;9.028;2022-12-18T01:16:03;68.45;;;22.08;;
3789;SDS011;1910;49.042;9.028;2022-12-18T01:18:29;71.87;;;29.20;;
3789;SDS011;1910;49.042;9.028;2022-12-18T01:20:54;69.37;;;26.17;;
3789;SDS011;1910;49.042;9.028;2022-12-18T01:23:20;77.33;;;28.50;;
3789;SDS011;1910;49.042;9.028;2022-12-18T01:25:45;57.33;;;23.03;;
3789;SDS011;1910;49.042;9.028;2022-12-18T01:28:11;62.87;;;21.83;;
3789;SDS011;1910;49.042;9.028;2022-12-18T01:30:37;45.87;;;19.70;;
3789;SDS011;1910;49.042;9.028;2022-12-18T01:33:06;56.35;;;23.48;;
3789;SDS011;1910;49.042;9.028;2022-12-18T01:35:31;56.85;;;23.13;;
3789;SDS011;1910;49.042;9.028;2022-12-18T01:37:57;55.33;;;22.48;;
3789;SDS011;1910;49.042;9.028;2022-12-18T01:40:23;69.77;;;28.73;;
3789;SDS011;1910;49.042;9.028;2022-12-18T01:42:52;73.20;;;24.90;;
3789;SDS011;1910;49.042;9.028;2022-12-18T01:47:46;60.83;;;23.70;;
3789;SDS011;1910;49.042;9.028;2022-12-18T01:50:22;55.00;;;22.25;;
3789;SDS011;1910;49.042;9.028;2022-12-18T01:53:04;63.50;;;22.80;;
3789;SDS011;1910;49.042;9.028;2022-12-18T01:55:48;66.43;;;23.95;;
3789;SDS011;1910;49.042;9.028;2022-12-18T01:58:16;50.88;;;20.70;;
3789;SDS011;1910;49.042;9.028;2022-12-18T02:00:44;57.88;;;24.73;;
3789;SDS011;1910;49.042;9.028;2022-12-18T02:03:09;67.47;;;30.03;;
3789;SDS011;1910;49.042;9.028;2022-12-18T02:05:38;64.43;;;24.48;;
3789;SDS011;1910;49.042;9.028;2022-12-18T02:08:13;58.20;;;23.10;;
3789;SDS011;1910;49.042;9.028;2022-12-18T02:10:44;63.13;;;28.63;;
3789;SDS011;1910;49.042;9.028;2022-12-18T02:13:29;68.88;;;24.85;;
3789;SDS011;1910;49.042;9.028;2022-12-18T02:18:44;63.10;;;24.58;;
3789;SDS011;1910;49.042;9.028;2022-12-18T02:24:13;55.03;;;23.20;;
3789;SDS011;1910;49.042;9.028;2022-12-18T02:26:58;54.63;;;21.90;;
3789;SDS011;1910;49.042;9.028;2022-12-18T02:29:31;44.65;;;19.42;;
3789;SDS011;1910;49.042;9.028;2022-12-18T02:32:02;52.47;;;21.42;;
3789;SDS011;1910;49.042;9.028;2022-12-18T02:34:31;59.83;;;21.67;;
3789;SDS011;1910;49.042;9.028;2022-12-18T02:37:02;43.67;;;18.80;;
3789;SDS011;1910;49.042;9.028;2022-12-18T02:39:32;58.03;;;22.77;;
3789;SDS011;1910;49.042;9.028;2022-12-18T02:42:00;58.13;;;26.13;;
3789;SDS011;1910;49.042;9.028;2022-12-18T02:44:32;76.97;;;27.75;;
3789;SDS011;1910;49.042;9.028;2022-12-18T02:47:12;71.32;;;26.45;;
3789;SDS011;1910;49.042;9.028;2022-12-18T02:53:01;51.80;;;20.08;;
3789;SDS011;1910;49.042;9.028;2022-12-18T02:58:26;59.47;;;22.13;;
3789;SDS011;1910;49.042;9.028;2022-12-18T03:01:09;64.47;;;26.58;;
3789;SDS011;1910;49.042;9.028;2022-12-18T03:08:49;48.38;;;21.55;;
3789;SDS011;1910;49.042;9.028;2022-12-18T03:11:19;48.95;;;18.75;;
3789;SDS011;1910;49.042;9.028;2022-12-18T03:14:04;50.88;;;18.60;;
3789;SDS011;1910;49.042;9.028;2022-12-18T03:16:32;43.05;;;20.90;;
3789;SDS011;1910;49.042;9.028;2022-12-18T03:19:05;50.38;;;20.08;;
3789;SDS011;1910;49.042;9.028;2022-12-18T03:21:37;47.10;;;20.98;;
3789;SDS011;1910;49.042;9.028;2022-12-18T03:24:06;30.00;;;15.20;;
3789;SDS011;1910;49.042;9.028;2022-12-18T03:26:34;36.97;;;17.30;;
3789;SDS011;1910;49.042;9.028;2022-12-18T03:29:06;30.77;;;14.52;;
3789;SDS011;1910;49.042;9.028;2022-12-18T03:31:39;36.35;;;14.90;;
3789;SDS011;1910;49.042;9.028;2022-12-18T03:34:12;36.40;;;18.73;;
3789;SDS011;1910;49.042;9.028;2022-12-18T03:36:46;50.03;;;21.05;;
3789;SDS011;1910;49.042;9.028;2022-12-18T03:39:12;19.97;;;11.13;;
3789;SDS011;1910;49.042;9.028;2022-12-18T03:41:41;46.87;;;14.40;;
3789;SDS011;1910;49.042;9.028;2022-12-18T03:47:04;56.55;;;21.63;;
3789;SDS011;1910;49.042;9.028;2022-12-18T03:49:48;36.53;;;15.38;;
3789;SDS011;1910;49.042;9.028;2022-12-18T03:52:25;58.70;;;26.63;;
3789;SDS011;1910;49.042;9.028;2022-12-18T03:54:55;41.83;;;16.08;;
3789;SDS011;1910;49.042;9.028;2022-12-18T03:57:24;50.22;;;17.52;;
3789;SDS011;1910;49.042;9.028;2022-12-18T03:59:54;40.33;;;18.60;;
3789;SDS011;1910;49.042;9.028;2022-12-18T04:02:24;30.13;;;13.25;;
3789;SDS011;1910;49.042;9.028;2022-12-18T04:04:51;27.30;;;12.97;;
3789;SDS011;1910;49.042;9.028;2022-12-18T04:07:18;11.40;;;6.10;;
3789;SDS011;1910;49.042;9.028;2022-12-18T04:09:46;27.80;;;12.82;;
3789;SDS011;1910;49.042;9.028;2022-12-18T04:12:13;26.92;;;9.35;;
3789;SDS011;1910;49.042;9.028;2022-12-18T04:14:39;16.50;;;8.73;;
3789;SDS011;1910;49.042;9.028;2022-12-18T04:17:04;25.77;;;13.47;;
3789;SDS011;1910;49.042;9.028;2022-12-18T04:19:30;29.43;;;13.63;;
3789;SDS011;1910;49.042;9.028;2022-12-18T04:21:55;19.10;;;8.90;;
3789;SDS011;1910;49.042;9.028;2022-12-18T04:24:21;14.90;;;7.77;;
3789;SDS011;1910;49.042;9.028;2022-12-18T04:26:46;13.40;;;8.50;;
3789;SDS011;1910;49.042;9.028;2022-12-18T04:29:12;29.60;;;12.27;;
3789;SDS011;1910;49.042;9.028;2022-12-18T04:31:38;23.17;;;11.30;;
3789;SDS011;1910;49.042;9.028;2022-12-18T04:34:03;28.17;;;10.90;;
3789;SDS011;1910;49.042;9.028;2022-12-18T04:36:29;37.30;;;13.93;;
3789;SDS011;1910;49.042;9.028;2022-12-18T04:38:55;19.43;;;10.50;;
3789;SDS011;1910;49.042;9.028;2022-12-18T04:41:20;26.70;;;11.20;;
3789;SDS011;1910;49.042;9.028;2022-12-18T04:43:46;36.33;;;13.40;;
3789;SDS011;1910;49.042;9.028;2022-12-18T04:46:11;21.47;;;9.63;;
3789;SDS011;1910;49.042;9.028;2022-12-18T04:48:37;33.70;;;11.50;;
3789;SDS011;1910;49.042;9.028;2022-12-18T04:51:03;35.03;;;13.57;;
3789;SDS011;1910;49.042;9.028;2022-12-18T04:53:29;37.58;;;11.55;;
3789;SDS011;1910;49.042;9.028;2022-12-18T04:58:47;28.08;;;11.25;;
3789;SDS011;1910;49.042;9.028;2022-12-18T05:01:14;36.53;;;14.70;;
3789;SDS011;1910;49.042;9.028;2022-12-18T05:03:41;34.45;;;13.50;;
3789;SDS011;1910;49.042;9.028;2022-12-18T05:06:06;29.67;;;13.83;;
3789;SDS011;1910;49.042;9.028;2022-12-18T05:08:32;31.10;;;13.17;;
3789;SDS011;1910;49.042;9.028;2022-12-18T05:11:01;40.13;;;14.50;;
3789;SDS011;1910;49.042;9.028;2022-12-18T05:13:29;26.92;;;11.68;;
3789;SDS011;1910;49.042;9.028;2022-12-18T05:15:55;23.23;;;11.70;;
3789;SDS011;1910;49.042;9.028;2022-12-18T05:18:21;40.67;;;14.60;;
3789;SDS011;1910;49.042;9.028;2022-12-18T05:20:50;39.10;;;18.25;;
3789;SDS011;1910;49.042;9.028;2022-12-18T05:23:17;37.30;;;15.45;;
3789;SDS011;1910;49.042;9.028;2022-12-18T05:25:46;39.35;;;15.57;;
3789;SDS011;1910;49.042;9.028;2022-12-18T05:28:15;37.22;;;16.25;;
3789;SDS011;1910;49.042;9.028;2022-12-18T05:30:40;42.10;;;16.80;;
3789;SDS011;1910;49.042;9.028;2022-12-18T05:33:06;44.87;;;13.80;;
3789;SDS011;1910;49.042;9.028;2022-12-18T05:35:31;32.37;;;10.77;;
3789;SDS011;1910;49.042;9.028;2022-12-18T05:37:57;12.80;;;5.50;;
3789;SDS011;1910;49.042;9.028;2022-12-18T05:40:23;27.93;;;15.03;;
3789;SDS011;1910;49.042;9.028;2022-12-18T05:42:48;16.37;;;6.77;;
3789;SDS011;1910;49.042;9.028;2022-12-18T05:45:14;28.97;;;11.10;;
3789;SDS011;1910;49.042;9.028;2022-12-18T05:47:39;23.87;;;10.80;;
3789;SDS011;1910;49.042;9.028;2022-12-18T05:50:05;28.23;;;14.53;;
3789;SDS011;1910;49.042;9.028;2022-12-18T05:52:31;34.30;;;14.52;;
3789;SDS011;1910;49.042;9.028;2022-12-18T05:54:57;14.50;;;6.83;;
3789;SDS011;1910;49.042;9.028;2022-12-18T05:57:24;24.35;;;8.05;;
3789;SDS011;1910;49.042;9.028;2022-12-18T05:59:49;30.83;;;13.90;;
3789;SDS011;1910;49.042;9.028;2022-12-18T06:02:15;34.83;;;14.53;;
3789;SDS011;1910;49.042;9.028;2022-12-18T06:04:40;11.03;;;5.70;;
3789;SDS011;1910;49.042;9.028;2022-12-18T06:07:06;15.83;;;7.97;;
3789;SDS011;1910;49.042;9.028;2022-12-18T06:09:31;17.83;;;8.47;;
3789;SDS011;1910;49.042;9.028;2022-12-18T06:11:57;21.03;;;9.33;;
3789;SDS011;1910;49.042;9.028;2022-12-18T06:14:22;22.83;;;10.63;;
3789;SDS011;1910;49.042;9.028;2022-12-18T06:16:49;21.97;;;11.00;;
3789;SDS011;1910;49.042;9.028;2022-12-18T06:19:16;9.52;;;4.88;;
3789;SDS011;1910;49.042;9.028;2022-12-18T06:21:42;23.83;;;12.60;;
3789;SDS011;1910;49.042;9.028;2022-12-18T06:24:08;33.88;;;13.70;;
3789;SDS011;1910;49.042;9.028;2022-12-18T06:26:34;22.13;;;11.20;;
3789;SDS011;1910;49.042;9.028;2022-12-18T06:29:02;25.13;;;13.27;;
3789;SDS011;1910;49.042;9.028;2022-12-18T06:31:28;36.13;;;14.90;;
3789;SDS011;1910;49.042;9.028;2022-12-18T06:33:53;17.40;;;10.37;;
3789;SDS011;1910;49.042;9.028;2022-12-18T06:36:19;18.87;;;9.30;;
3789;SDS011;1910;49.042;9.028;2022-12-18T06:38:45;38.95;;;12.35;;
3789;SDS011;1910;49.042;9.028;2022-12-18T06:41:12;27.27;;;13.17;;
3789;SDS011;1910;49.042;9.028;2022-12-18T06:43:40;29.90;;;13.35;;
3789;SDS011;1910;49.042;9.028;2022-12-18T06:46:05;29.70;;;11.77;;
3789;SDS011;1910;49.042;9.028;2022-12-18T06:48:31;41.80;;;15.57;;
3789;SDS011;1910;49.042;9.028;2022-12-18T06:50:57;38.83;;;14.73;;
3789;SDS011;1910;49.042;9.028;2022-12-18T06:53:23;26.83;;;11.30;;
3789;SDS011;1910;49.042;9.028;2022-12-18T06:55:48;32.67;;;12.70;;
3789;SDS011;1910;49.042;9.028;2022-12-18T06:58:15;17.92;;;10.57;;
3789;SDS011;1910;49.042;9.028;2022-12-18T07:00:41;29.53;;;10.40;;
3789;SDS011;1910;49.042;9.028;2022-12-18T07:03:06;32.10;;;12.23;;
3789;SDS011;1910;49.042;9.028;2022-12-18T07:05:32;27.83;;;13.20;;
3789;SDS011;1910;49.042;9.028;2022-12-18T07:07:58;39.63;;;15.47;;
3789;SDS011;1910;49.042;9.028;2022-12-18T07:10:24;31.40;;;16.27;;
3789;SDS011;1910;49.042;9.028;2022-12-18T07:12:50;39.60;;;14.07;;
3789;SDS011;1910;49.042;9.028;2022-12-18T07:15:15;37.60;;;15.30;;
3789;SDS011;1910;49.042;9.028;2022-12-18T07:17:41;14.90;;;6.33;;
3789;SDS011;1910;49.042;9.028;2022-12-18T07:20:07;36.47;;;15.20;;
3789;SDS011;1910;49.042;9.028;2022-12-18T07:22:33;52.00;;;17.48;;
3789;SDS011;1910;49.042;9.028;2022-12-18T07:24:58;45.00;;;17.10;;
3789;SDS011;1910;49.042;9.028;2022-12-18T07:27:24;38.83;;;15.50;;
3789;SDS011;1910;49.042;9.028;2022-12-18T07:29:49;59.97;;;20.90;;
3789;SDS011;1910;49.042;9.028;2022-12-18T07:32:15;40.33;;;15.33;;
3789;SDS011;1910;49.042;9.028;2022-12-18T07:34:40;62.20;;;18.00;;
3789;SDS011;1910;49.042;9.028;2022-12-18T07:37:06;37.17;;;16.07;;
3789;SDS011;1910;49.042;9.028;2022-12-18T07:39:32;22.80;;;8.00;;
3789;SDS011;1910;49.042;9.028;2022-12-18T07:41:58;18.33;;;8.52;;
3789;SDS011;1910;49.042;9.028;2022-12-18T07:44:42;41.30;;;17.25;;
3789;SDS011;1910;49.042;9.028;2022-12-18T07:47:08;53.33;;;18.87;;
3789;SDS011;1910;49.042;9.028;2022-12-18T07:49:33;30.80;;;13.67;;
3789;SDS011;1910;49.042;9.028;2022-12-18T07:51:59;43.53;;;16.80;;
3789;SDS011;1910;49.042;9.028;2022-12-18T07:54:25;38.15;;;17.42;;
3789;SDS011;1910;49.042;9.028;2022-12-18T07:56:51;43.03;;;15.50;;
3789;SDS011;1910;49.042;9.028;2022-12-18T07:59:17;40.67;;;16.25;;
3789;SDS011;1910;49.042;9.028;2022-12-18T08:01:43;27.98;;;10.00;;
3789;SDS011;1910;49.042;9.028;2022-12-18T08:04:09;30.13;;;11.60;;
3789;SDS011;1910;49.042;9.028;2022-12-18T08:06:34;45.97;;;18.27;;
3789;SDS011;1910;49.042;9.028;2022-12-18T08:09:00;53.63;;;18.33;;
3789;SDS011;1910;49.042;9.028;2022-12-18T08:11:26;39.30;;;15.53;;
3789;SDS011;1910;49.042;9.028;2022-12-18T08:13:53;18.17;;;9.55;;
3789;SDS011;1910;49.042;9.028;2022-12-18T08:16:20;21.20;;;12.13;;
3789;SDS011;1910;49.042;9.028;2022-12-18T08:18:47;30.10;;;13.40;;
3789;SDS011;1910;49.042;9.028;2022-12-18T08:21:18;30.95;;;10.80;;
3789;SDS011;1910;49.042;9.028;2022-12-18T08:23:47;41.38;;;15.02;;
3789;SDS011;1910;49.042;9.028;2022-12-18T08:26:14;24.67;;;11.13;;
3789;SDS011;1910;49.042;9.028;2022-12-18T08:28:41;38.00;;;14.95;;
3789;SDS011;1910;49.042;9.028;2022-12-18T08:31:07;34.13;;;17.48;;
3789;SDS011;1910;49.042;9.028;2022-12-18T08:33:33;39.47;;;16.20;;
3789;SDS011;1910;49.042;9.028;2022-12-18T08:35:59;34.35;;;15.23;;
3789;SDS011;1910;49.042;9.028;2022-12-18T08:38:26;21.75;;;11.27;;
3789;SDS011;1910;49.042;9.028;2022-12-18T08:41:11;52.53;;;17.03;;
3789;SDS011;1910;49.042;9.028;2022-12-18T08:43:37;17.45;;;8.40;;
3789;SDS011;1910;49.042;9.028;2022-12-18T08:46:23;29.08;;;12.20;;
3789;SDS011;1910;49.042;9.028;2022-12-18T08:48:50;27.02;;;8.80;;
3789;SDS011;1910;49.042;9.028;2022-12-18T08:51:17;26.60;;;11.32;;
3789;SDS011;1910;49.042;9.028;2022-12-18T08:53:42;21.03;;;9.97;;
3789;SDS011;1910;49.042;9.028;2022-12-18T08:56:09;23.60;;;10.10;;
3789;SDS011;1910;49.042;9.028;2022-12-18T08:58:35;37.47;;;14.10;;
3789;SDS011;1910;49.042;9.028;2022-12-18T09:01:01;39.33;;;15.20;;
3789;SDS011;1910;49.042;9.028;2022-12-18T09:03:27;36.67;;;15.73;;
3789;SDS011;1910;49.042;9.028;2022-12-18T09:05:53;41.97;;;18.23;;
3789;SDS011;1910;49.042;9.028;2022-12-18T09:08:18;35.37;;;15.67;;
3789;SDS011;1910;49.042;9.028;2022-12-18T09:10:45;24.07;;;11.03;;
3789;SDS011;1910;49.042;9.028;2022-12-18T09:13:12;43.85;;;17.05;;
3789;SDS011;1910;49.042;9.028;2022-12-18T09:15:41;20.17;;;10.02;;
3789;SDS011;1910;49.042;9.028;2022-12-18T09:18:08;21.20;;;10.98;;
3789;SDS011;1910;49.042;9.028;2022-12-18T09:20:34;31.80;;;13.38;;
3789;SDS011;1910;49.042;9.028;2022-12-18T09:23:01;25.10;;;11.48;;
3789;SDS011;1910;49.042;9.028;2022-12-18T09:25:28;26.30;;;11.55;;
3789;SDS011;1910;49.042;9.028;2022-12-18T09:27:57;26.90;;;11.88;;
3789;SDS011;1910;49.042;9.028;2022-12-18T09:30:46;33.40;;;14.43;;
3789;SDS011;1910;49.042;9.028;2022-12-18T09:33:15;37.33;;;15.30;;
3789;SDS011;1910;49.042;9.028;2022-12-18T09:35:41;15.82;;;9.07;;
3789;SDS011;1910;49.042;9.028;2022-12-18T09:38:08;20.80;;;9.65;;
3789;SDS011;1910;49.042;9.028;2022-12-18T09:40:40;23.10;;;10.07;;
3789;SDS011;1910;49.042;9.028;2022-12-18T09:43:12;28.98;;;13.45;;
3789;SDS011;1910;49.042;9.028;2022-12-18T09:45:50;43.25;;;15.88;;
3789;SDS011;1910;49.042;9.028;2022-12-18T09:48:22;27.13;;;11.38;;
3789;SDS011;1910;49.042;9.028;2022-12-18T09:50:52;46.45;;;14.90;;
3789;SDS011;1910;49.042;9.028;2022-12-18T09:53:24;33.33;;;17.70;;
3789;SDS011;1910;49.042;9.028;2022-12-18T09:55:52;29.10;;;14.57;;
3789;SDS011;1910;49.042;9.028;2022-12-18T09:58:24;23.02;;;12.60;;
3789;SDS011;1910;49.042;9.028;2022-12-18T10:01:11;32.53;;;16.08;;
3789;SDS011;1910;49.042;9.028;2022-12-18T10:03:39;33.30;;;13.82;;
3789;SDS011;1910;49.042;9.028;2022-12-18T10:06:12;37.00;;;15.27;;
3789;SDS011;1910;49.042;9.028;2022-12-18T10:14:52;35.00;;;13.73;;
3789;SDS011;1910;49.042;9.028;2022-12-18T10:20:48;41.00;;;15.80;;
3789;SDS011;1910;49.042;9.028;2022-12-18T10:23:05;35.15;;;15.70;;
3789;SDS011;1910;49.042;9.028;2022-12-18T10:28:10;24.90;;;9.90;;
3789;SDS011;1910;49.042;9.028;2022-12-18T10:30:38;32.53;;;14.55;;
3789;SDS011;1910;49.042;9.028;2022-12-18T10:33:05;28.48;;;15.60;;
3789;SDS011;1910;49.042;9.028;2022-12-18T10:35:31;18.90;;;8.20;;
3789;SDS011;1910;49.042;9.028;2022-12-18T10:38:01;33.90;;;9.90;;
3789;SDS011;1910;49.042;9.028;2022-12-18T10:40:30;30.85;;;12.10;;
3789;SDS011;1910;49.042;9.028;2022-12-18T10:45:36;14.13;;;7.72;;
3789;SDS011;1910;49.042;9.028;2022-12-18T10:48:02;31.20;;;12.97;;
3789;SDS011;1910;49.042;9.028;2022-12-18T10:50:32;34.38;;;15.02;;
3789;SDS011;1910;49.042;9.028;2022-12-18T10:53:00;32.35;;;13.77;;
3789;SDS011;1910;49.042;9.028;2022-12-18T10:55:33;34.22;;;12.25;;
3789;SDS011;1910;49.042;9.028;2022-12-18T10:58:19;29.98;;;11.43;;
3789;SDS011;1910;49.042;9.028;2022-12-18T11:01:02;18.55;;;7.88;;
3789;SDS011;1910;49.042;9.028;2022-12-18T11:06:08;26.90;;;12.13;;
3789;SDS011;1910;49.042;9.028;2022-12-18T11:08:39;24.42;;;11.52;;
3789;SDS011;1910;49.042;9.028;2022-12-18T11:11:07;19.83;;;8.52;;
3789;SDS011;1910;49.042;9.028;2022-12-18T11:13:49;42.47;;;15.23;;
3789;SDS011;1910;49.042;9.028;2022-12-18T11:16:30;24.08;;;12.25;;
3789;SDS011;1910;49.042;9.028;2022-12-18T11:21:52;42.13;;;15.98;;
3789;SDS011;1910;49.042;9.028;2022-12-18T11:24:52;39.10;;;15.00;;
3789;SDS011;1910;49.042;9.028;2022-12-18T11:27:17;35.88;;;16.25;;
3789;SDS011;1910;49.042;9.028;2022-12-18T11:29:43;25.52;;;10.43;;
3789;SDS011;1910;49.042;9.028;2022-12-18T11:35:10;33.10;;;11.43;;
3789;SDS011;1910;49.042;9.028;2022-12-18T11:41:00;51.83;;;18.75;;
3789;SDS011;1910;49.042;9.028;2022-12-18T11:43:45;37.65;;;16.77;;
3789;SDS011;1910;49.042;9.028;2022-12-18T11:46:31;43.85;;;15.35;;
3789;SDS011;1910;49.042;9.028;2022-12-18T11:51:48;22.13;;;9.15;;
3789;SDS011;1910;49.042;9.028;2022-12-18T11:54:20;44.33;;;17.45;;
3789;SDS011;1910;49.042;9.028;2022-12-18T11:56:48;47.20;;;18.60;;
3789;SDS011;1910;49.042;9.028;2022-12-18T12:02:12;46.13;;;17.92;;
3789;SDS011;1910;49.042;9.028;2022-12-18T12:05:05;42.30;;;16.85;;
3789;SDS011;1910;49.042;9.028;2022-12-18T12:08:05;33.03;;;15.15;;
3789;SDS011;1910;49.042;9.028;2022-12-18T12:13:30;32.05;;;14.88;;
3789;SDS011;1910;49.042;9.028;2022-12-18T12:16:13;47.33;;;16.73;;
3789;SDS011;1910;49.042;9.028;2022-12-18T12:21:58;26.08;;;12.15;;
3789;SDS011;1910;49.042;9.028;2022-12-18T12:30:22;54.05;;;19.48;;
3789;SDS011;1910;49.042;9.028;2022-12-18T12:38:43;57.28;;;20.40;;
3789;SDS011;1910;49.042;9.028;2022-12-18T12:41:16;55.22;;;19.20;;
3789;SDS011;1910;49.042;9.028;2022-12-18T12:44:06;41.85;;;16.80;;
3789;SDS011;1910;49.042;9.028;2022-12-18T12:46:35;47.08;;;18.80;;
3789;SDS011;1910;49.042;9.028;2022-12-18T12:49:07;39.35;;;17.35;;
3789;SDS011;1910;49.042;9.028;2022-12-18T12:51:45;51.20;;;20.30;;
3789;SDS011;1910;49.042;9.028;2022-12-18T12:54:19;39.15;;;18.02;;
3789;SDS011;1910;49.042;9.028;2022-12-18T12:57:04;38.60;;;17.83;;
3789;SDS011;1910;49.042;9.028;2022-12-18T12:59:57;46.25;;;19.17;;
3789;SDS011;1910;49.042;9.028;2022-12-18T13:05:19;46.05;;;20.20;;
3789;SDS011;1910;49.042;9.028;2022-12-18T13:08:02;53.20;;;19.92;;
3789;SDS011;1910;49.042;9.028;2022-12-18T13:10:32;46.45;;;20.55;;
3789;SDS011;1910;49.042;9.028;2022-12-18T13:23:36;32.10;;;11.93;;
3789;SDS011;1910;49.042;9.028;2022-12-18T13:33:47;51.50;;;19.90;;
3789;SDS011;1910;49.042;9.028;2022-12-18T13:36:14;44.83;;;16.30;;
3789;SDS011;1910;49.042;9.028;2022-12-18T13:44:37;41.92;;;18.42;;
3789;SDS011;1910;49.042;9.028;2022-12-18T13:47:50;36.97;;;16.85;;
3789;SDS011;1910;49.042;9.028;2022-12-18T13:49:58;52.42;;;20.60;;
3789;SDS011;1910;49.042;9.028;2022-12-18T13:52:25;50.22;;;19.42;;
3789;SDS011;1910;49.042;9.028;2022-12-18T13:54:57;57.90;;;22.08;;
3789;SDS011;1910;49.042;9.028;2022-12-18T13:57:30;36.17;;;19.00;;
3789;SDS011;1910;49.042;9.028;2022-12-18T14:02:49;23.75;;;10.60;;
3789;SDS011;1910;49.042;9.028;2022-12-18T14:07:52;38.17;;;15.75;;
3789;SDS011;1910;49.042;9.028;2022-12-18T14:10:18;39.97;;;16.48;;
3789;SDS011;1910;49.042;9.028;2022-12-18T14:12:46;42.30;;;16.45;;
3789;SDS011;1910;49.042;9.028;2022-12-18T14:17:49;40.87;;;16.93;;
3789;SDS011;1910;49.042;9.028;2022-12-18T14:20:15;36.47;;;12.70;;
3789;SDS011;1910;49.042;9.028;2022-12-18T14:22:43;47.80;;;17.80;;
3789;SDS011;1910;49.042;9.028;2022-12-18T14:27:46;39.95;;;17.40;;
3789;SDS011;1910;49.042;9.028;2022-12-18T14:30:35;43.65;;;17.73;;
3789;SDS011;1910;49.042;9.028;2022-12-18T14:33:03;40.30;;;16.50;;
3789;SDS011;1910;49.042;9.028;2022-12-18T14:35:42;36.50;;;17.52;;
3789;SDS011;1910;49.042;9.028;2022-12-18T14:38:27;50.13;;;18.30;;
3789;SDS011;1910;49.042;9.028;2022-12-18T14:40:53;47.63;;;22.27;;
3789;SDS011;1910;49.042;9.028;2022-12-18T14:43:24;42.67;;;18.73;;
3789;SDS011;1910;49.042;9.028;2022-12-18T14:45:51;51.85;;;20.73;;
3789;SDS011;1910;49.042;9.028;2022-12-18T14:48:18;42.85;;;18.35;;
3789;SDS011;1910;49.042;9.028;2022-12-18T14:51:02;52.97;;;19.00;;
3789;SDS011;1910;49.042;9.028;2022-12-18T14:53:37;30.65;;;12.90;;
3789;SDS011;1910;49.042;9.028;2022-12-18T14:56:16;46.20;;;18.98;;
3789;SDS011;1910;49.042;9.028;2022-12-18T14:58:45;47.35;;;18.33;;
3789;SDS011;1910;49.042;9.028;2022-12-18T15:01:19;43.42;;;17.85;;
3789;SDS011;1910;49.042;9.028;2022-12-18T15:04:22;53.17;;;21.20;;
3789;SDS011;1910;49.042;9.028;2022-12-18T15:07:03;32.67;;;14.18;;
3789;SDS011;1910;49.042;9.028;2022-12-18T15:09:28;43.75;;;16.20;;
3789;SDS011;1910;49.042;9.028;2022-12-18T15:11:58;61.37;;;22.53;;
3789;SDS011;1910;49.042;9.028;2022-12-18T15:14:32;47.15;;;18.50;;
3789;SDS011;1910;49.042;9.028;2022-12-18T15:17:06;52.40;;;19.98;;
3789;SDS011;1910;49.042;9.028;2022-12-18T15:19:53;46.30;;;20.10;;
3789;SDS011;1910;49.042;9.028;2022-12-18T15:22:34;42.85;;;15.35;;
3789;SDS011;1910;49.042;9.028;2022-12-18T15:25:00;44.67;;;19.55;;
3789;SDS011;1910;49.042;9.028;2022-12-18T15:27:29;37.25;;;18.05;;
3789;SDS011;1910;49.042;9.028;2022-12-18T15:32:28;48.93;;;17.70;;
3789;SDS011;1910;49.042;9.028;2022-12-18T15:35:08;42.23;;;17.97;;
3789;SDS011;1910;49.042;9.028;2022-12-18T15:37:46;40.10;;;14.02;;
3789;SDS011;1910;49.042;9.028;2022-12-18T15:40:12;45.47;;;20.17;;
3789;SDS011;1910;49.042;9.028;2022-12-18T15:42:50;44.92;;;18.58;;
3789;SDS011;1910;49.042;9.028;2022-12-18T15:45:37;68.43;;;26.90;;
3789;SDS011;1910;49.042;9.028;2022-12-18T15:48:07;63.00;;;23.30;;
3789;SDS011;1910;49.042;9.028;2022-12-18T15:50:42;45.13;;;18.63;;
3789;SDS011;1910;49.042;9.028;2022-12-18T15:53:08;51.40;;;19.87;;
3789;SDS011;1910;49.042;9.028;2022-12-18T15:55:34;50.60;;;21.83;;
3789;SDS011;1910;49.042;9.028;2022-12-18T15:58:18;43.80;;;19.20;;
3789;SDS011;1910;49.042;9.028;2022-12-18T16:00:45;53.95;;;21.08;;
3789;SDS011;1910;49.042;9.028;2022-12-18T16:03:10;51.93;;;20.80;;
3789;SDS011;1910;49.042;9.028;2022-12-18T16:05:36;41.43;;;18.40;;
3789;SDS011;1910;49.042;9.028;2022-12-18T16:08:01;72.30;;;32.60;;
3789;SDS011;1910;49.042;9.028;2022-12-18T16:10:27;48.17;;;17.87;;
3789;SDS011;1910;49.042;9.028;2022-12-18T16:12:53;43.03;;;19.20;;
3789;SDS011;1910;49.042;9.028;2022-12-18T16:15:19;54.23;;;22.50;;
3789;SDS011;1910;49.042;9.028;2022-12-18T16:17:45;75.47;;;23.87;;
3789;SDS011;1910;49.042;9.028;2022-12-18T16:20:17;39.50;;;17.05;;
3789;SDS011;1910;49.042;9.028;2022-12-18T16:22:45;25.05;;;13.85;;
3789;SDS011;1910;49.042;9.028;2022-12-18T16:25:19;47.55;;;19.67;;
3789;SDS011;1910;49.042;9.028;2022-12-18T16:27:49;53.78;;;22.02;;
3789;SDS011;1910;49.042;9.028;2022-12-18T16:30:17;42.50;;;19.95;;
3789;SDS011;1910;49.042;9.028;2022-12-18T16:32:46;43.83;;;17.30;;
3789;SDS011;1910;49.042;9.028;2022-12-18T16:35:13;38.83;;;16.50;;
3789;SDS011;1910;49.042;9.028;2022-12-18T16:37:40;17.58;;;8.30;;
3789;SDS011;1910;49.042;9.028;2022-12-18T16:40:07;41.40;;;14.25;;
3789;SDS011;1910;49.042;9.028;2022-12-18T16:42:34;42.97;;;16.80;;
3789;SDS011;1910;49.042;9.028;2022-12-18T16:45:02;42.70;;;17.70;;
3789;SDS011;1910;49.042;9.028;2022-12-18T16:47:28;41.03;;;15.38;;
3789;SDS011;1910;49.042;9.028;2022-12-18T16:49:53;50.63;;;20.47;;
3789;SDS011;1910;49.042;9.028;2022-12-18T16:52:19;41.03;;;17.17;;
3789;SDS011;1910;49.042;9.028;2022-12-18T16:54:45;45.65;;;13.52;;
3789;SDS011;1910;49.042;9.028;2022-12-18T16:57:12;30.70;;;14.30;;
3789;SDS011;1910;49.042;9.028;2022-12-18T16:59:39;52.80;;;18.33;;